createdAt,value
2022-09-17T03:00:24.153Z,99.90
2022-09-17T03:02:58.567Z,99.90
2022-09-17T03:05:28.702Z,99.90
2022-09-17T03:07:57.267Z,99.90
2022-09-17T03:10:25.107Z,99.90
2022-09-17T03:12:54.986Z,99.90
2022-09-17T03:15:24.131Z,99.90
2022-09-17T03:17:53.504Z,99.90
2022-09-17T03:20:21.516Z,99.90
2022-09-17T03:22:49.326Z,99.90
2022-09-17T03:25:17.250Z,99.90
2022-09-17T03:27:45.052Z,99.90
2022-09-17T03:30:13.138Z,99.90
2022-09-17T03:32:42.287Z,99.90
2022-09-17T03:35:10.338Z,99.90
2022-09-17T03:37:38.218Z,99.90
2022-09-17T03:40:07.376Z,99.90
2022-09-17T03:42:35.260Z,99.90
2022-09-17T03:45:03.093Z,99.90
2022-09-17T03:47:31.247Z,99.90
2022-09-17T03:50:00.484Z,99.90
2022-09-17T03:52:28.306Z,99.90
2022-09-17T03:54:56.192Z,99.90
2022-09-17T03:57:24.084Z,99.90
2022-09-17T03:59:52.023Z,99.90
2022-09-17T04:02:19.892Z,99.90
2022-09-17T04:04:48.161Z,99.90
2022-09-17T04:07:17.314Z,99.90
2022-09-17T04:09:45.127Z,99.90
2022-09-17T04:12:12.940Z,99.90
2022-09-17T04:14:40.788Z,99.90
2022-09-17T04:17:08.660Z,99.90
2022-09-17T04:19:36.686Z,99.90
2022-09-17T04:22:04.873Z,99.90
2022-09-17T04:24:34.021Z,99.90
2022-09-17T04:27:01.827Z,99.90
2022-09-17T04:29:29.666Z,99.90
2022-09-17T04:31:57.488Z,99.90
2022-09-17T04:34:25.320Z,99.90
2022-09-17T04:36:53.130Z,99.90
2022-09-17T04:39:21.323Z,99.90
2022-09-17T04:41:50.495Z,99.90
2022-09-17T04:44:18.387Z,99.90
2022-09-17T04:46:46.288Z,99.90
2022-09-17T04:49:14.155Z,99.90
2022-09-17T04:51:42.006Z,99.90
2022-09-17T04:54:09.846Z,99.90
2022-09-17T04:56:37.670Z,99.90
2022-09-17T04:59:06.870Z,99.90
2022-09-17T05:01:34.738Z,99.90
2022-09-17T05:04:03.279Z,99.90
2022-09-17T05:06:31.085Z,99.90
2022-09-17T05:08:59.155Z,99.90
2022-09-17T05:11:27.010Z,99.90
2022-09-17T05:13:55.192Z,99.90
2022-09-17T05:16:24.598Z,99.90
2022-09-17T05:18:52.632Z,99.90
2022-09-17T05:21:20.952Z,99.90
2022-09-17T05:23:48.855Z,99.90
2022-09-17T05:26:16.756Z,99.90
2022-09-17T05:28:44.618Z,99.90
2022-09-17T05:31:12.516Z,99.90
2022-09-17T05:33:41.701Z,99.90
2022-09-17T05:36:09.825Z,99.90
2022-09-17T05:38:38.218Z,99.90
2022-09-17T05:41:07.117Z,99.90
2022-09-17T05:43:35.181Z,99.90
2022-09-17T05:46:03.729Z,99.90
2022-09-17T05:48:31.608Z,99.90
2022-09-17T05:51:00.863Z,99.90
2022-09-17T05:53:28.875Z,99.90
2022-09-17T05:55:58.046Z,99.90
2022-09-17T05:58:27.050Z,99.90
2022-09-17T06:00:54.868Z,99.90
2022-09-17T06:03:23.600Z,99.90
2022-09-17T06:05:56.494Z,99.90
2022-09-17T06:08:27.726Z,99.90
2022-09-17T06:11:00.168Z,99.90
2022-09-17T06:13:30.886Z,99.90
2022-09-17T06:15:58.781Z,99.90
2022-09-17T06:18:26.642Z,99.90
2022-09-17T06:20:55.808Z,99.90
2022-09-17T06:23:25.258Z,99.90
2022-09-17T06:25:54.785Z,99.90
2022-09-17T06:28:22.861Z,99.90
2022-09-17T06:30:52.650Z,99.90
2022-09-17T06:33:20.455Z,99.90
2022-09-17T06:35:48.356Z,99.90
2022-09-17T06:38:16.247Z,99.90
2022-09-17T06:40:51.036Z,99.90
2022-09-17T06:43:18.877Z,99.90
2022-09-17T06:45:52.979Z,99.90
2022-09-17T06:48:20.836Z,99.90
2022-09-17T06:50:48.619Z,99.90
2022-09-17T06:53:16.852Z,99.90
2022-09-17T06:55:46.000Z,99.90
2022-09-17T06:58:13.799Z,99.90
2022-09-17T07:00:41.786Z,99.90
2022-09-17T07:03:10.940Z,99.90
2022-09-17T07:05:38.759Z,99.90
2022-09-17T07:08:06.577Z,99.90
2022-09-17T07:10:34.407Z,99.90
2022-09-17T07:13:04.047Z,99.90
2022-09-17T07:15:32.476Z,99.90
2022-09-17T07:18:00.296Z,99.90
2022-09-17T07:20:28.096Z,99.90
2022-09-17T07:22:57.226Z,99.90
2022-09-17T07:25:26.523Z,99.90
2022-09-17T07:27:54.720Z,99.90
2022-09-17T07:30:23.930Z,99.90
2022-09-17T07:32:51.746Z,99.90
2022-09-17T07:35:19.593Z,99.90
2022-09-17T07:37:47.745Z,99.90
2022-09-17T07:40:15.765Z,99.90
2022-09-17T07:42:43.607Z,99.90
2022-09-17T07:45:12.153Z,99.90
2022-09-17T07:47:42.277Z,99.90
2022-09-17T07:50:10.792Z,99.90
2022-09-17T07:52:38.722Z,99.90
2022-09-17T07:55:07.445Z,99.90
2022-09-17T07:57:35.269Z,99.90
2022-09-17T08:00:03.555Z,99.90
2022-09-17T08:02:40.719Z,99.90
2022-09-17T08:05:10.185Z,99.90
2022-09-17T08:07:37.992Z,99.90
2022-09-17T08:10:06.577Z,99.90
2022-09-17T08:12:34.358Z,99.90
2022-09-17T08:15:02.496Z,99.90
2022-09-17T08:17:30.369Z,99.90
2022-09-17T08:19:59.506Z,99.90
2022-09-17T08:22:27.963Z,99.90
2022-09-17T08:24:55.763Z,99.90
2022-09-17T08:27:23.619Z,99.90
2022-09-17T08:29:51.422Z,99.90
2022-09-17T08:32:19.215Z,99.90
2022-09-17T08:34:47.011Z,99.90
2022-09-17T08:37:16.197Z,99.90
2022-09-17T08:39:44.137Z,99.90
2022-09-17T08:42:20.779Z,99.90
2022-09-17T08:44:52.061Z,99.90
2022-09-17T08:47:27.179Z,99.90
2022-09-17T08:49:57.759Z,99.90
2022-09-17T08:52:57.586Z,99.90
2022-09-17T08:55:35.157Z,99.90
2022-09-17T08:58:35.416Z,99.90
2022-09-17T09:01:15.948Z,99.90
2022-09-17T09:03:59.603Z,99.90
2022-09-17T09:06:33.877Z,99.90
2022-09-17T09:09:06.382Z,99.90
2022-09-17T09:11:35.389Z,99.90
2022-09-17T09:14:12.258Z,99.90
2022-09-17T09:16:42.358Z,99.90
2022-09-17T09:19:20.924Z,99.90
2022-09-17T09:22:02.211Z,99.90
2022-09-17T09:24:40.698Z,99.90
2022-09-17T09:27:17.897Z,99.90
2022-09-17T09:29:58.438Z,99.90
2022-09-17T09:32:39.590Z,99.90
2022-09-17T09:35:19.125Z,99.90
2022-09-17T09:37:53.935Z,99.90
2022-09-17T09:40:36.688Z,99.90
2022-09-17T09:43:15.210Z,99.90
2022-09-17T09:46:07.328Z,99.90
2022-09-17T09:48:45.275Z,99.90
2022-09-17T09:51:25.088Z,99.90
2022-09-17T09:54:07.886Z,99.90
2022-09-17T09:56:52.819Z,99.90
2022-09-17T09:59:20.939Z,99.90
2022-09-17T10:01:49.177Z,99.90
2022-09-17T10:04:19.720Z,99.90
2022-09-17T10:06:49.194Z,99.90
2022-09-17T10:09:21.400Z,99.90
2022-09-17T10:12:05.151Z,99.90
2022-09-17T10:14:34.313Z,99.90
2022-09-17T10:17:20.822Z,99.90
2022-09-17T10:20:05.615Z,99.90
2022-09-17T10:22:35.727Z,99.90
2022-09-17T10:25:06.538Z,99.90
2022-09-17T10:27:36.813Z,99.90
2022-09-17T10:30:15.767Z,99.90
2022-09-17T10:32:43.857Z,99.90
2022-09-17T10:35:27.429Z,99.90
2022-09-17T10:37:55.878Z,99.90
2022-09-17T10:40:29.750Z,99.90
2022-09-17T10:43:23.411Z,99.90
2022-09-17T10:46:00.626Z,99.90
2022-09-17T10:48:32.382Z,99.90
2022-09-17T10:51:03.010Z,99.90
2022-09-17T10:53:30.902Z,99.90
2022-09-17T10:56:14.902Z,99.90
2022-09-17T10:59:01.619Z,99.90
2022-09-17T11:01:39.455Z,99.90
2022-09-17T11:04:28.743Z,99.90
2022-09-17T11:07:34.183Z,99.90
2022-09-17T11:10:10.426Z,99.90
2022-09-17T11:12:48.589Z,99.90
2022-09-17T11:15:33.227Z,99.90
2022-09-17T11:18:26.663Z,99.90
2022-09-17T11:21:17.237Z,99.90
2022-09-17T11:24:03.212Z,99.90
2022-09-17T11:26:37.235Z,99.90
2022-09-17T11:29:30.569Z,99.90
2022-09-17T11:32:08.716Z,99.90
2022-09-17T11:34:42.771Z,99.90
2022-09-17T11:37:14.397Z,99.90
2022-09-17T11:39:48.199Z,99.90
2022-09-17T11:42:22.128Z,99.90
2022-09-17T11:44:55.346Z,99.90
2022-09-17T11:47:30.470Z,99.90
2022-09-17T11:50:01.987Z,99.90
2022-09-17T11:52:35.827Z,98.30
2022-09-17T11:55:21.293Z,97.80
2022-09-17T11:57:52.857Z,98.50
2022-09-17T12:00:22.634Z,98.30
2022-09-17T12:02:56.198Z,97.90
2022-09-17T12:05:29.644Z,97.20
2022-09-17T12:08:05.540Z,96.90
2022-09-17T12:10:43.898Z,98.00
2022-09-17T12:13:27.564Z,97.60
2022-09-17T12:16:07.538Z,96.20
2022-09-17T12:18:50.613Z,95.80
2022-09-17T12:21:23.787Z,96.60
2022-09-17T12:23:56.720Z,95.20
2022-09-17T12:26:34.316Z,94.30
2022-09-17T12:29:06.829Z,94.50
2022-09-17T12:31:42.725Z,93.80
2022-09-17T12:34:27.216Z,94.10
2022-09-17T12:37:05.482Z,93.70
2022-09-17T12:39:50.922Z,93.80
2022-09-17T12:42:34.062Z,93.10
2022-09-17T12:45:22.236Z,93.40
2022-09-17T12:48:36.011Z,90.90
2022-09-17T12:51:18.148Z,90.60
2022-09-17T12:53:56.562Z,90.20
2022-09-17T12:56:35.472Z,90.90
2022-09-17T12:59:09.273Z,90.10
2022-09-17T13:01:43.577Z,90.50
2022-09-17T13:04:59.535Z,90.80
2022-09-17T13:08:09.831Z,91.20
2022-09-17T13:11:25.589Z,91.80
2022-09-17T13:14:02.148Z,93.70
2022-09-17T13:16:37.200Z,98.50
2022-09-17T13:19:16.454Z,99.90
2022-09-17T13:21:52.888Z,99.90
2022-09-17T13:24:25.079Z,99.90
2022-09-17T13:26:54.612Z,99.90
2022-09-17T13:29:59.006Z,99.90
2022-09-17T13:32:49.959Z,99.90
2022-09-17T13:35:49.993Z,99.90
2022-09-17T13:38:23.947Z,99.90
2022-09-17T13:41:13.995Z,99.90
2022-09-17T13:43:47.065Z,99.90
2022-09-17T13:46:23.970Z,99.90
2022-09-17T13:48:56.830Z,99.90
2022-09-17T13:51:49.951Z,99.90
2022-09-17T13:54:20.873Z,97.80
2022-09-17T13:57:08.443Z,97.20
2022-09-17T13:59:37.374Z,95.30
2022-09-17T14:02:38.460Z,93.60
2022-09-17T14:05:35.747Z,91.10
2022-09-17T14:08:27.754Z,90.80
2022-09-17T14:10:59.084Z,93.70
2022-09-17T14:13:56.037Z,94.70
2022-09-17T14:16:35.732Z,95.90
2022-09-17T14:19:18.450Z,95.30
2022-09-17T14:21:57.715Z,95.70
2022-09-17T14:24:27.445Z,96.50
2022-09-17T14:27:09.905Z,96.10
2022-09-17T14:30:05.300Z,96.60
2022-09-17T14:32:40.186Z,97.40
2022-09-17T14:35:19.973Z,96.90
2022-09-17T14:37:55.601Z,96.10
2022-09-17T14:40:25.019Z,96.30
2022-09-17T14:42:56.847Z,96.60
2022-09-17T14:45:29.343Z,97.60
2022-09-17T14:48:19.802Z,97.20
2022-09-17T14:50:47.692Z,96.10
2022-09-17T14:53:18.659Z,96.80
2022-09-17T14:55:48.059Z,96.30
2022-09-17T14:58:33.883Z,97.10
2022-09-17T15:01:03.251Z,99.90
2022-09-17T15:03:31.080Z,99.70
2022-09-17T15:05:58.987Z,98.70
2022-09-17T15:08:30.160Z,98.40
2022-09-17T15:11:00.470Z,98.10
2022-09-17T15:13:30.888Z,98.20
2022-09-17T15:16:07.625Z,98.50
2022-09-17T15:18:39.579Z,99.90
2022-09-17T15:21:22.194Z,99.30
2022-09-17T15:23:55.080Z,97.60
2022-09-17T15:26:28.877Z,97.60
2022-09-17T15:28:57.506Z,97.80
2022-09-17T15:31:30.175Z,99.00
2022-09-17T15:34:00.927Z,99.90
2022-09-17T15:36:31.558Z,99.90
2022-09-17T15:39:00.067Z,99.90
2022-09-17T15:41:35.554Z,99.90
2022-09-17T15:44:29.748Z,99.90
2022-09-17T15:47:32.480Z,99.90
2022-09-17T15:50:17.051Z,99.90
2022-09-17T15:52:44.985Z,99.90
2022-09-17T15:55:33.448Z,99.90
2022-09-17T15:58:03.354Z,99.90
2022-09-17T16:00:31.429Z,99.90
2022-09-17T16:02:59.786Z,99.90
2022-09-17T16:05:55.788Z,99.90
2022-09-17T16:08:25.754Z,99.90
2022-09-17T16:10:53.803Z,99.90
2022-09-17T16:13:25.134Z,99.90
2022-09-17T16:15:55.969Z,99.90
2022-09-17T16:18:23.935Z,99.90
2022-09-17T16:20:53.257Z,99.90
2022-09-17T16:23:21.111Z,99.90
2022-09-17T16:25:49.399Z,99.90
2022-09-17T16:28:19.932Z,99.90
2022-09-17T16:30:49.450Z,99.90
2022-09-17T16:33:19.018Z,99.90
2022-09-17T16:35:46.842Z,99.90
2022-09-17T16:38:16.023Z,99.90
2022-09-17T16:40:47.063Z,99.90
2022-09-17T16:43:15.253Z,99.90
2022-09-17T16:45:43.078Z,99.90
2022-09-17T16:48:11.678Z,99.90
2022-09-17T16:50:41.149Z,99.90
2022-09-17T16:53:08.975Z,99.90
2022-09-17T16:55:39.441Z,99.90
2022-09-17T16:58:07.391Z,99.90
2022-09-17T17:00:36.040Z,99.90
2022-09-17T17:03:05.315Z,99.90
2022-09-17T17:05:36.865Z,99.90
2022-09-17T17:08:06.870Z,99.90
2022-09-17T17:10:44.010Z,99.90
2022-09-17T17:13:12.092Z,99.90
2022-09-17T17:15:41.664Z,99.90
2022-09-17T17:18:09.563Z,99.90
2022-09-17T17:20:37.652Z,99.90
2022-09-17T17:23:05.522Z,99.90
2022-09-17T17:25:33.477Z,99.90
2022-09-17T17:28:02.987Z,99.90
2022-09-17T17:30:34.885Z,99.90
2022-09-17T17:33:03.918Z,99.90
2022-09-17T17:35:31.774Z,99.90
2022-09-17T17:37:59.599Z,99.90
2022-09-17T17:40:27.653Z,99.90
2022-09-17T17:42:55.582Z,99.90
2022-09-17T17:45:24.812Z,99.90
2022-09-17T17:47:53.645Z,99.90
2022-09-17T17:50:21.680Z,99.90
2022-09-17T17:52:49.683Z,99.90
2022-09-17T17:55:17.998Z,99.90
2022-09-17T17:57:45.933Z,99.90
2022-09-17T18:00:16.353Z,99.90
2022-09-17T18:02:45.633Z,99.90
2022-09-17T18:05:13.571Z,99.90
2022-09-17T18:07:41.486Z,99.90
2022-09-17T18:10:10.059Z,99.90
2022-09-17T18:12:37.951Z,99.90
2022-09-17T18:15:06.735Z,99.90
2022-09-17T18:17:36.209Z,99.90
2022-09-17T18:20:06.315Z,99.90
2022-09-17T18:22:34.289Z,99.90
2022-09-17T18:25:02.158Z,99.90
2022-09-17T18:27:29.979Z,99.90
2022-09-17T18:29:57.998Z,99.90
2022-09-17T18:32:25.864Z,99.90
2022-09-17T18:34:53.906Z,99.90
2022-09-17T18:37:23.082Z,99.90
2022-09-17T18:39:58.572Z,99.90
2022-09-17T18:42:27.264Z,99.90
2022-09-17T18:44:55.138Z,99.90
2022-09-17T18:47:23.054Z,99.90
2022-09-17T18:49:50.870Z,99.90
2022-09-17T18:52:18.739Z,99.90
2022-09-17T18:54:47.934Z,99.90
2022-09-17T18:57:15.899Z,99.90
2022-09-17T18:59:43.921Z,99.90
2022-09-17T19:02:13.749Z,99.90
2022-09-17T19:04:41.634Z,99.90
2022-09-17T19:07:09.687Z,99.90
2022-09-17T19:09:37.514Z,99.90
2022-09-17T19:12:07.011Z,99.90
2022-09-17T19:14:34.866Z,99.90
2022-09-17T19:17:02.721Z,99.90
2022-09-17T19:19:30.563Z,99.90
2022-09-17T19:21:58.383Z,99.90
2022-09-17T19:24:27.184Z,99.90
2022-09-17T19:26:54.989Z,99.90
2022-09-17T19:29:24.222Z,99.90
2022-09-17T19:31:52.075Z,99.90
2022-09-17T19:34:19.941Z,99.90
2022-09-17T19:36:47.796Z,99.90
2022-09-17T19:39:17.636Z,99.90
2022-09-17T19:41:45.523Z,99.90
2022-09-17T19:44:13.677Z,99.90
2022-09-17T19:46:42.999Z,99.90
2022-09-17T19:49:11.112Z,99.90
2022-09-17T19:51:38.994Z,99.90
2022-09-17T19:54:07.960Z,99.90
2022-09-17T19:56:35.873Z,99.90
2022-09-17T19:59:03.743Z,99.90
2022-09-17T20:01:32.002Z,99.90
2022-09-17T20:04:01.379Z,99.90
2022-09-17T20:06:29.237Z,99.90
2022-09-17T20:08:57.183Z,99.90
2022-09-17T20:11:26.259Z,99.90
2022-09-17T20:13:58.316Z,99.90
2022-09-17T20:16:26.903Z,99.90
2022-09-17T20:18:55.238Z,99.90
2022-09-17T20:21:27.694Z,99.90
2022-09-17T20:23:55.979Z,99.90
2022-09-17T20:26:24.150Z,99.90
2022-09-17T20:28:52.606Z,99.90
2022-09-17T20:31:22.388Z,99.90
2022-09-17T20:33:54.077Z,99.90
2022-09-17T20:36:25.145Z,99.90
2022-09-17T20:41:42.182Z,99.90
2022-09-17T20:44:10.141Z,99.90
2022-09-17T20:46:37.980Z,99.90
2022-09-17T20:49:06.004Z,99.90
2022-09-17T20:51:35.698Z,99.90
2022-09-17T20:54:03.826Z,99.90
2022-09-17T20:56:34.431Z,99.90
2022-09-17T20:59:13.078Z,99.90
2022-09-17T21:01:44.599Z,99.90
2022-09-17T21:04:14.830Z,99.90
2022-09-17T21:06:44.983Z,99.90
2022-09-17T21:09:16.576Z,99.90
2022-09-17T21:11:45.369Z,99.90
2022-09-17T21:14:15.235Z,99.90
2022-09-17T21:16:43.463Z,99.90
2022-09-17T21:19:14.756Z,99.90
2022-09-17T21:21:43.919Z,99.90
2022-09-17T21:24:12.281Z,99.90
2022-09-17T21:26:40.166Z,99.90
2022-09-17T21:29:08.142Z,99.90
2022-09-17T21:31:37.491Z,99.90
2022-09-17T21:34:07.675Z,99.90
2022-09-17T21:36:37.743Z,99.90
2022-09-17T21:39:08.834Z,99.90
2022-09-17T21:41:42.056Z,99.90
2022-09-17T21:44:11.207Z,99.90
2022-09-17T21:46:40.292Z,99.90
2022-09-17T21:49:08.569Z,99.90
2022-09-17T21:51:38.296Z,99.90
2022-09-17T21:54:09.708Z,99.90
2022-09-17T21:56:38.156Z,99.90
2022-09-17T21:59:07.575Z,99.90
